Anapa, Russia

7:21 AM MSK on July 30, 2014 (GMT +0400)
Vityazevo (URKA) Elev 174 ft | 45.00 °N, 37.35 °E | Change Station

Current weather conditions updated 21 minutes ago

Clear
Clear
66 °F
Feels Like 66 °F
N
11
Wind Variable Wind from ENE
Gusts 18 mph

Today is forecast to be Cooler than yesterday.

Today
High -- | Low -- °F
--% Chance of Precip.
Yesterday
High -- | Low -- °F
Precip. -- in
6:13 AM 8:59 PM
Waxing Crescent, 9% visible
Pressure 29.83 in
Visibility -9999.0 miles
Clouds
Dew Point 54 °F
Humidity 64%
Rainfall 0.00 in
Snow Depth Not available.
UV Not available.
Pollen Not available.
Air Quality Not available.
Flu Activity Not available.
METAR URKA 300300Z 07005G08MPS CAVOK 19/12 Q1010 RMK QFE753/1005

More Conditions Fewer Conditions

Pressure 29.83 in
Visibility -9999.0 miles
Clouds
Dew Point 54 °F
Humidity 64%
Rainfall 0.00 in
Snow Depth Not available.
UV Not available.
Pollen Not available.
Air Quality Not available.
Flu Activity Not available.
METAR URKA 300300Z 07005G08MPS CAVOK 19/12 Q1010 RMK QFE753/1005

More Conditions Fewer Conditions

10-Day Weather Forecast

Almanac

Astronomy

Jul. 30, 2014 Rise Set
Actual Time 6:13 AM MSK 8:59 PM MSK
Civil Twilight 5:39 AM MSK 9:33 PM MSK
Nautical Twilight 4:56 AM MSK 10:16 PM MSK
Astronomical Twilight 4:06 AM MSK 11:06 PM MSK
Moon 9:36 AM MSK 10:20 PM MSK
Length of Visible Light 15h 53m
Length of Day
14h 46m
Tomorrow will be 2m 20s shorter.
Waxing Crescent, 9% of the Moon is Illuminated
Jul 29
Waxing Crescent
Aug 3
First Quarter
Aug 10
Full
Aug 17
Last Quarter
Aug 25
New

Yesterday's Extremes

Country Highs Country Lows

Community

WunderPhotos

Upload Photos

1,738,989 photos uploaded!

Nearby

Snow Depth

Not available.

Earthquake Activity

City Distance Mag. Time & Date
No recent earthquake activity has been reported nearby.
Minimum magnitude displayed is 2.5.

Coastal Water Temperatures

Place Temperature
No Stations Reporting

Nearby Weather Stations

There are no personal weather stations in this area.